Página principal
METAR-TAF:

METAR-TAF

Aeroportos :

Curaçao, Antilhas Neerlandesas

Aeroporto Internacional Hato

latitude: 12-12N, longitude: 068-58W, altura: 9 m

Observação actual do tempo

O boletim foi feito há 25 minutos, às 16:00 UTC
Vento 13 kt de este
Temperatura 31°C
Humidade 66%
Pressão 1012 hPa
Visibilidade 10 km ou mais
Nuvens dispersasa uma altura de 2000 ft

METAR: TNCC 251600Z 08013KT 9999 SCT020 31/24 Q1012 NOSIG

Hora: 12:25 (16:25 UTC)

Previsão

O boletim foi feito há 6 horas e 25 minutos, às 10:00 UTC
Previsão válida de 25 às 12 UTC a 26 às 12 UTC
Vento 14 kt de este
Visibilidade 10 km ou mais
Nuvens dispersasa uma altura de 2000 ft

TAF: TNCC 251000Z 2512/2612 10014KT 9999 SCT020

Observações e previsões do tempo de mais de 4000 aeroportos (mensagens METAR e TAF).

As estações disponíveis são os pontos amarelos e vermelhos sobre o mapa.

Mova o rato sobre o mapa para ver o nome da estação.

Depois clique no ponto para visualizar as observações e previsões meteorológicas.

Para alterar o mapa : clique nos botões verdes com uma cruz preta para aumentar o zoom; no botão verde com uma pitada de zoom; ou nas setas verdes para mapas adjacentes.


METAR-TAF: